aviador You're here:

YCBP Decoded Metar

in
Report Time2017-11-25 03:00:00
UTC Time2017-11-25 03:39:08
Flight Rules vfr VFR
Wind180° at 05 kt
W.Decomp.*RWY 14: 3.8 kt HW 3.2 kt RCW
RWY 22: 3.8 kt HW 3.2 kt LCW
W.Rank180° ranks 2
Current wind is below 180° avg. (11.0)
Visibility9999 m
Phenomena:N/A
Clouds:N/A
Expected CloudBase > 8,400 ft AGL from Temp-Dew spread
CeilingNone
Temp30°C
Dew Point09°C (27% RH)
Heat Index28.6°C
AAT28.0°C
QNH1011 hPa
Raw Report
METAR YCBP 250300Z AUTO 18005KT 9999 // NCD 30/09 Q1011=

Extra information for YCBP:More info

Social comments